createdAt,value
2023-03-15T00:01:34.270Z,96307.31
2023-03-15T00:04:05.946Z,96309.88
2023-03-15T00:06:36.007Z,96306.19
2023-03-15T00:09:04.756Z,96315.06
2023-03-15T00:11:33.338Z,96318.59
2023-03-15T00:14:02.605Z,96318.84
2023-03-15T00:16:32.805Z,96325.88
2023-03-15T00:19:01.887Z,96325.13
2023-03-15T00:21:30.424Z,96330.16
2023-03-15T00:24:00.080Z,96337.47
2023-03-15T00:26:28.418Z,96333.63
2023-03-15T00:28:56.761Z,96332.56
2023-03-15T00:31:26.722Z,96336.03
2023-03-15T00:33:55.195Z,96336.41
2023-03-15T00:36:26.897Z,96350.59
2023-03-15T00:38:57.127Z,96339.53
2023-03-15T00:41:26.983Z,96349.06
2023-03-15T00:43:55.899Z,96340.19
2023-03-15T00:46:24.281Z,96350.53
2023-03-15T00:48:53.232Z,96357.22
2023-03-15T00:51:23.859Z,96347.22
2023-03-15T00:53:53.977Z,96356.84
2023-03-15T00:56:24.186Z,96352.63
2023-03-15T00:58:54.220Z,96354.91
2023-03-15T01:01:24.477Z,96362.59
2023-03-15T01:03:52.944Z,96355.94
2023-03-15T01:06:23.959Z,96359.94
2023-03-15T01:08:54.546Z,96355.41
2023-03-15T01:11:26.145Z,96356.97
2023-03-15T01:13:58.501Z,96357.16
2023-03-15T01:16:28.529Z,96359.53
2023-03-15T01:18:57.131Z,96352.16
2023-03-15T01:21:27.182Z,96352.06
2023-03-15T01:23:55.789Z,96353.81
2023-03-15T01:26:24.635Z,96352.16
2023-03-15T01:28:53.111Z,96341.00
2023-03-15T01:31:25.332Z,96350.78
2023-03-15T01:33:53.872Z,96348.31
2023-03-15T01:36:23.076Z,96355.22
2023-03-15T01:38:52.400Z,96346.59
2023-03-15T01:41:27.360Z,96347.25
2023-03-15T01:43:55.741Z,96348.97
2023-03-15T01:46:34.886Z,96370.47
2023-03-15T01:49:17.378Z,96364.72
2023-03-15T01:51:50.178Z,96378.59
2023-03-15T01:54:22.651Z,96381.84
2023-03-15T01:56:56.260Z,96383.72
2023-03-15T01:59:28.891Z,96387.19
2023-03-15T02:02:01.122Z,96391.59
2023-03-15T02:04:34.783Z,96389.94
2023-03-15T02:07:05.095Z,96388.94
2023-03-15T02:09:43.086Z,96404.97
2023-03-15T02:12:12.576Z,96394.72
2023-03-15T02:14:42.562Z,96398.19
2023-03-15T02:17:16.195Z,96401.00
2023-03-15T02:19:54.209Z,96403.66
2023-03-15T02:22:34.547Z,96403.00
2023-03-15T02:25:11.214Z,96397.16
2023-03-15T02:27:41.337Z,96405.75
2023-03-15T02:30:11.686Z,96408.22
2023-03-15T02:32:40.445Z,96408.28
2023-03-15T02:35:09.313Z,96408.63
2023-03-15T02:37:37.442Z,96418.94
2023-03-15T02:40:17.905Z,96434.59
2023-03-15T02:42:49.264Z,96433.59
2023-03-15T02:45:18.766Z,96430.84
2023-03-15T02:47:48.211Z,96422.53
2023-03-15T02:50:16.510Z,96435.50
2023-03-15T02:52:44.928Z,96437.47
2023-03-15T02:55:13.607Z,96445.31
2023-03-15T02:57:41.688Z,96449.28
2023-03-15T03:00:14.790Z,96452.69
2023-03-15T03:02:46.860Z,96455.38
2023-03-15T03:05:17.315Z,96461.34
2023-03-15T03:07:45.793Z,96464.88
2023-03-15T03:10:17.516Z,96470.84
2023-03-15T03:12:58.681Z,96474.22
2023-03-15T03:15:34.269Z,96476.78
2023-03-15T03:18:02.382Z,96475.88
2023-03-15T03:20:30.436Z,96489.03
2023-03-15T03:22:58.791Z,96486.69
2023-03-15T03:25:27.388Z,96487.44
2023-03-15T03:27:57.510Z,96483.09
2023-03-15T03:30:27.964Z,96497.63
2023-03-15T03:32:57.576Z,96494.03
2023-03-15T03:35:25.838Z,96489.75
2023-03-15T03:37:54.737Z,96483.81
2023-03-15T03:40:29.203Z,96499.91
2023-03-15T03:42:57.324Z,96498.25
2023-03-15T03:45:25.670Z,96503.00
2023-03-15T03:47:58.423Z,96510.59
2023-03-15T03:50:27.002Z,96515.06
2023-03-15T03:52:55.335Z,96529.09
2023-03-15T03:55:27.942Z,96530.91
2023-03-15T03:57:56.170Z,96543.47
2023-03-15T04:00:37.698Z,96548.66
2023-03-15T04:03:10.647Z,96555.75
2023-03-15T04:05:42.060Z,96548.47
2023-03-15T04:08:10.633Z,96561.81
2023-03-15T04:10:40.824Z,96562.41
2023-03-15T04:13:09.650Z,96561.59
2023-03-15T04:15:38.202Z,96564.84
2023-03-15T04:18:07.377Z,96567.53
2023-03-15T04:20:46.759Z,96571.00
2023-03-15T04:23:16.808Z,96569.00
2023-03-15T04:26:06.671Z,96575.38
2023-03-15T04:29:00.405Z,96579.09
2023-03-15T04:32:01.907Z,96580.66
2023-03-15T04:34:51.361Z,96590.81
2023-03-15T04:37:33.829Z,96596.00
2023-03-15T04:40:20.608Z,96600.63
2023-03-15T04:43:17.103Z,96610.03
2023-03-15T04:45:59.764Z,96616.56
2023-03-15T04:48:45.776Z,96617.41
2023-03-15T04:51:44.331Z,96628.16
2023-03-15T04:54:40.615Z,96625.28
2023-03-15T04:57:35.252Z,96630.53
2023-03-15T05:00:24.670Z,96629.88
2023-03-15T05:03:25.685Z,96640.63
2023-03-15T05:06:08.369Z,96643.81
2023-03-15T05:09:05.690Z,96644.50
2023-03-15T05:12:02.349Z,96648.84
2023-03-15T05:14:57.934Z,96650.78
2023-03-15T05:17:37.567Z,96652.91
2023-03-15T05:20:26.170Z,96658.38
2023-03-15T05:23:15.095Z,96658.91
2023-03-15T05:26:03.776Z,96660.13
2023-03-15T05:29:05.898Z,96660.19
2023-03-15T05:32:00.541Z,96664.41
2023-03-15T05:34:47.598Z,96657.50
2023-03-15T05:37:42.465Z,96663.81
2023-03-15T05:40:31.274Z,96674.75
2023-03-15T05:43:09.126Z,96672.19
2023-03-15T05:46:01.427Z,96678.84
2023-03-15T05:49:05.654Z,96681.59
2023-03-15T05:51:48.484Z,96688.31
2023-03-15T05:54:35.949Z,96696.06
2023-03-15T05:57:25.288Z,96698.75
2023-03-15T06:00:17.991Z,96704.84
2023-03-15T06:02:49.673Z,96704.25
2023-03-15T06:05:37.146Z,96712.75
2023-03-15T06:08:08.486Z,96720.25
2023-03-15T06:10:41.584Z,96729.19
2023-03-15T06:13:11.997Z,96719.53
2023-03-15T06:15:41.169Z,96731.00
2023-03-15T06:18:13.942Z,96738.00
2023-03-15T06:20:42.455Z,96736.00
2023-03-15T06:23:14.698Z,96749.56
2023-03-15T06:25:47.172Z,96750.97
2023-03-15T06:28:16.347Z,96757.63
2023-03-15T06:30:51.052Z,96768.69
2023-03-15T06:33:27.034Z,96767.59
2023-03-15T06:35:56.452Z,96772.72
2023-03-15T06:38:24.981Z,96783.53
2023-03-15T06:40:53.893Z,96785.06
2023-03-15T06:43:22.563Z,96786.50
2023-03-15T06:45:53.677Z,96792.97
2023-03-15T06:48:22.931Z,96800.31
2023-03-15T06:50:53.706Z,96789.72
2023-03-15T06:53:22.429Z,96799.38
2023-03-15T06:55:52.410Z,96799.75
2023-03-15T06:58:20.631Z,96796.78
2023-03-15T07:00:49.793Z,96806.66
2023-03-15T07:03:19.349Z,96793.81
2023-03-15T07:05:50.002Z,96803.72
2023-03-15T07:08:20.497Z,96806.06
2023-03-15T07:10:49.725Z,96810.19
2023-03-15T07:13:19.260Z,96807.31
2023-03-15T07:15:48.199Z,96807.81
2023-03-15T07:18:16.414Z,96802.25
2023-03-15T07:20:44.768Z,96798.78
2023-03-15T07:23:12.940Z,96789.69
2023-03-15T07:25:54.390Z,96795.88
2023-03-15T07:28:24.523Z,96801.53
2023-03-15T07:30:57.463Z,96800.06
2023-03-15T07:33:26.808Z,96803.19
2023-03-15T07:35:55.876Z,96805.69
2023-03-15T07:38:25.384Z,96793.56
2023-03-15T07:40:55.141Z,96797.09
2023-03-15T07:43:24.197Z,96794.19
2023-03-15T07:46:01.654Z,96788.44
2023-03-15T07:48:31.092Z,96796.47
2023-03-15T07:50:59.574Z,96799.53
2023-03-15T07:53:27.851Z,96799.75
2023-03-15T07:55:57.997Z,96803.63
2023-03-15T07:58:26.336Z,96809.50
2023-03-15T08:00:56.694Z,96807.44
2023-03-15T08:03:26.990Z,96807.84
2023-03-15T08:05:56.521Z,96811.28
2023-03-15T08:08:24.622Z,96804.19
2023-03-15T08:10:52.767Z,96799.59
2023-03-15T08:13:22.401Z,96805.22
2023-03-15T08:15:50.846Z,96808.28
2023-03-15T08:18:19.124Z,96808.06
2023-03-15T08:20:47.478Z,96816.88
2023-03-15T08:23:16.864Z,96810.91
2023-03-15T08:25:45.513Z,96813.00
2023-03-15T08:28:13.717Z,96816.81
2023-03-15T08:30:43.150Z,96806.25
2023-03-15T08:33:12.719Z,96816.00
2023-03-15T08:35:41.907Z,96825.13
2023-03-15T08:38:10.598Z,96816.31
2023-03-15T08:40:40.798Z,96826.56
2023-03-15T08:43:08.824Z,96827.88
2023-03-15T08:45:56.748Z,96827.31
2023-03-15T08:48:26.706Z,96833.09
2023-03-15T08:50:55.229Z,96829.56
2023-03-15T08:53:24.070Z,96842.94
2023-03-15T08:55:52.096Z,96839.56
2023-03-15T08:58:20.354Z,96835.13
2023-03-15T09:00:51.542Z,96843.22
2023-03-15T09:03:20.355Z,96850.66
2023-03-15T09:05:49.937Z,96855.09
2023-03-15T09:08:21.254Z,96847.97
2023-03-15T09:10:49.494Z,96848.72
2023-03-15T09:13:17.871Z,96852.13
2023-03-15T09:15:45.942Z,96847.81
2023-03-15T09:18:13.992Z,96852.22
2023-03-15T09:20:42.336Z,96863.19
2023-03-15T09:23:12.279Z,96861.66
2023-03-15T09:25:41.048Z,96865.25
2023-03-15T09:28:11.521Z,96869.75
2023-03-15T09:30:42.019Z,96874.75
2023-03-15T09:33:10.494Z,96882.47
2023-03-15T09:35:38.518Z,96876.84
2023-03-15T09:38:06.801Z,96875.31
2023-03-15T09:40:41.779Z,96877.38
2023-03-15T09:43:36.848Z,96873.66
2023-03-15T09:46:16.960Z,96889.38
2023-03-15T09:48:52.833Z,96886.09
2023-03-15T09:51:30.342Z,96884.22
2023-03-15T09:54:03.177Z,96889.25
2023-03-15T09:56:37.518Z,96894.25
2023-03-15T09:59:07.533Z,96881.44
2023-03-15T10:01:40.102Z,96875.63
2023-03-15T10:04:14.535Z,96887.06
2023-03-15T10:06:48.673Z,96878.19
2023-03-15T10:09:22.038Z,96886.84
2023-03-15T10:12:03.049Z,96912.19
2023-03-15T10:14:51.744Z,96899.88
2023-03-15T10:17:25.570Z,96917.63
2023-03-15T10:20:01.494Z,96922.16
2023-03-15T10:22:35.711Z,96922.06
2023-03-15T10:25:11.428Z,96930.94
2023-03-15T10:27:46.895Z,96938.03
2023-03-15T10:30:19.250Z,96938.41
2023-03-15T10:32:50.885Z,96945.59
2023-03-15T10:35:21.665Z,96943.09
2023-03-15T10:37:50.206Z,96949.91
2023-03-15T10:40:44.466Z,96947.50
2023-03-15T10:43:20.274Z,96945.19
2023-03-15T10:46:01.478Z,96946.38
2023-03-15T10:48:32.680Z,96948.03
2023-03-15T10:51:05.267Z,96947.13
2023-03-15T10:53:33.888Z,96947.59
2023-03-15T10:56:07.370Z,96939.47
2023-03-15T10:58:42.347Z,96946.47
2023-03-15T11:01:23.030Z,96945.41
2023-03-15T11:04:14.498Z,96942.59
2023-03-15T11:06:45.934Z,96928.84
2023-03-15T11:09:16.371Z,96934.13
2023-03-15T11:11:59.361Z,96932.06
2023-03-15T11:14:33.562Z,96935.75
2023-03-15T11:17:03.347Z,96927.19
2023-03-15T11:19:34.371Z,96931.91
2023-03-15T11:22:04.027Z,96937.97
2023-03-15T11:24:34.579Z,96933.66
2023-03-15T11:27:11.388Z,96939.09
2023-03-15T11:29:43.472Z,96935.94
2023-03-15T11:32:16.314Z,96933.53
2023-03-15T11:34:49.780Z,96931.13
2023-03-15T11:37:21.964Z,96932.44
2023-03-15T11:40:05.117Z,96935.28
2023-03-15T11:42:45.898Z,96942.06
2023-03-15T11:45:19.446Z,96944.88
2023-03-15T11:47:54.450Z,96943.72
2023-03-15T11:50:25.376Z,96946.84
2023-03-15T11:52:54.325Z,96943.13
2023-03-15T11:55:26.315Z,96947.81
2023-03-15T11:57:58.088Z,96948.19
2023-03-15T12:00:51.819Z,96939.00
2023-03-15T12:03:34.554Z,96933.09
2023-03-15T12:06:07.987Z,96939.16
2023-03-15T12:08:48.579Z,96937.75
2023-03-15T12:11:39.014Z,96940.19
2023-03-15T12:14:28.256Z,96935.88
2023-03-15T12:17:48.476Z,96929.69
2023-03-15T12:20:24.933Z,96932.97
2023-03-15T12:22:57.466Z,96933.81
2023-03-15T12:25:37.282Z,96932.28
2023-03-15T12:28:10.730Z,96949.69
2023-03-15T12:30:44.060Z,96940.53
2023-03-15T12:33:16.905Z,96934.78
2023-03-15T12:35:46.370Z,96940.47
2023-03-15T12:38:19.057Z,96933.47
2023-03-15T12:40:54.669Z,96939.00
2023-03-15T12:43:41.245Z,96943.78
2023-03-15T12:46:49.014Z,96939.63
2023-03-15T12:49:32.666Z,96944.03
2023-03-15T12:52:03.209Z,96937.88
2023-03-15T12:54:40.369Z,96941.38
2023-03-15T12:57:12.047Z,96950.41
2023-03-15T12:59:51.217Z,96940.47
2023-03-15T13:02:43.396Z,96940.84
2023-03-15T13:05:18.917Z,96948.38
2023-03-15T13:07:56.845Z,96957.75
2023-03-15T13:10:39.343Z,96958.88
2023-03-15T13:13:29.891Z,96962.22
2023-03-15T13:16:17.889Z,96964.47
2023-03-15T13:18:56.481Z,96960.81
2023-03-15T13:21:29.561Z,96955.28
2023-03-15T13:24:00.394Z,96958.69
2023-03-15T13:26:42.555Z,96956.56
2023-03-15T13:29:17.689Z,96956.22
2023-03-15T13:31:46.810Z,96953.66
2023-03-15T13:34:21.914Z,96962.22
2023-03-15T13:36:55.931Z,96967.81
2023-03-15T13:39:26.411Z,96957.19
2023-03-15T13:42:00.264Z,96961.59
2023-03-15T13:44:30.404Z,96968.56
2023-03-15T13:46:59.110Z,96973.88
2023-03-15T13:49:34.737Z,96974.66
2023-03-15T13:52:12.275Z,96976.78
2023-03-15T13:54:42.258Z,96970.34
2023-03-15T13:57:15.072Z,96968.69
2023-03-15T13:59:48.612Z,96975.34
2023-03-15T14:02:20.834Z,96978.13
2023-03-15T14:04:53.795Z,96968.00
2023-03-15T14:07:28.856Z,96972.88
2023-03-15T14:10:29.062Z,96969.47
2023-03-15T14:12:59.020Z,96974.69
2023-03-15T14:15:35.979Z,96976.56
2023-03-15T14:18:17.134Z,96977.63
2023-03-15T14:20:49.010Z,96970.94
2023-03-15T14:23:19.412Z,96970.47
2023-03-15T14:25:53.184Z,96955.66
2023-03-15T14:28:22.085Z,96967.91
2023-03-15T14:30:55.367Z,96959.44
2023-03-15T14:33:27.884Z,96962.84
2023-03-15T14:36:00.539Z,96956.38
2023-03-15T14:38:34.624Z,96954.91
2023-03-15T14:41:33.180Z,96968.53
2023-03-15T14:44:04.364Z,96965.47
2023-03-15T14:46:33.217Z,96973.53
2023-03-15T14:49:01.743Z,96972.69
2023-03-15T14:51:33.091Z,96978.25
2023-03-15T14:54:01.769Z,96983.50
2023-03-15T14:56:29.850Z,96980.84
2023-03-15T14:58:58.153Z,96984.88
2023-03-15T15:01:28.677Z,96983.59
2023-03-15T15:04:01.743Z,96984.06
2023-03-15T15:06:33.024Z,96987.19
2023-03-15T15:09:02.964Z,96994.69
2023-03-15T15:11:31.253Z,96998.75
2023-03-15T15:13:59.909Z,96997.97
2023-03-15T15:16:28.663Z,97006.91
2023-03-15T15:18:56.794Z,97006.22
2023-03-15T15:21:29.382Z,97015.50
2023-03-15T15:24:00.218Z,97020.13
2023-03-15T15:26:31.667Z,97025.03
2023-03-15T15:29:00.851Z,97018.72
2023-03-15T15:31:33.795Z,97017.56
2023-03-15T15:34:03.180Z,97017.72
2023-03-15T15:36:34.354Z,97020.63
2023-03-15T15:39:07.077Z,97021.19
2023-03-15T15:41:36.600Z,97025.00
2023-03-15T15:44:04.969Z,97023.13
2023-03-15T15:46:33.642Z,97026.81
2023-03-15T15:49:01.770Z,97019.34
2023-03-15T15:51:32.595Z,97016.03
2023-03-15T15:54:02.647Z,97022.28
2023-03-15T15:56:48.431Z,97025.81
2023-03-15T15:59:18.644Z,97022.00
2023-03-15T16:02:00.129Z,97029.28
2023-03-15T16:04:30.330Z,97039.25
2023-03-15T16:07:01.628Z,97038.34
2023-03-15T16:09:33.407Z,97043.16
2023-03-15T16:12:03.224Z,97049.22
2023-03-15T16:14:31.330Z,97048.47
2023-03-15T16:16:59.581Z,97051.88
2023-03-15T16:19:27.917Z,97067.38
2023-03-15T16:21:57.179Z,97063.47
2023-03-15T16:24:29.143Z,97059.97
2023-03-15T16:27:01.320Z,97071.97
2023-03-15T16:29:38.107Z,97068.03
2023-03-15T16:32:19.115Z,97081.28
2023-03-15T16:34:53.310Z,97083.94
2023-03-15T16:37:25.335Z,97090.00
2023-03-15T16:39:55.783Z,97091.06
2023-03-15T16:42:26.017Z,97094.19
2023-03-15T16:44:56.316Z,97092.69
2023-03-15T16:47:24.828Z,97092.50
2023-03-15T16:49:53.174Z,97098.22
2023-03-15T16:52:21.137Z,97095.44
2023-03-15T16:54:49.702Z,97102.13
2023-03-15T16:57:22.170Z,97102.50
2023-03-15T16:59:51.432Z,97106.25
2023-03-15T17:02:22.900Z,97115.41
2023-03-15T17:04:52.862Z,97111.34
2023-03-15T17:07:24.003Z,97121.81
2023-03-15T17:09:52.513Z,97121.06
2023-03-15T17:12:23.576Z,97127.09
2023-03-15T17:14:52.805Z,97124.59
2023-03-15T17:17:22.533Z,97132.81
2023-03-15T17:19:52.711Z,97144.19
2023-03-15T17:22:21.550Z,97146.94
2023-03-15T17:24:51.110Z,97153.09
2023-03-15T17:27:24.190Z,97159.34
2023-03-15T17:29:53.000Z,97172.72
2023-03-15T17:32:23.220Z,97181.25
2023-03-15T17:34:51.693Z,97180.09
2023-03-15T17:37:20.456Z,97183.84
2023-03-15T17:39:48.786Z,97176.22
2023-03-15T17:42:17.270Z,97191.84
2023-03-15T17:44:45.357Z,97192.22
2023-03-15T17:47:14.129Z,97194.41
2023-03-15T17:49:43.620Z,97191.97
2023-03-15T17:52:15.220Z,97197.34
2023-03-15T17:54:45.487Z,97199.91
2023-03-15T17:57:15.935Z,97200.69
2023-03-15T17:59:44.666Z,97213.84
2023-03-15T18:02:15.851Z,97210.22
2023-03-15T18:04:45.451Z,97223.56
2023-03-15T18:07:14.322Z,97216.28
2023-03-15T18:09:42.674Z,97227.38
2023-03-15T18:12:14.381Z,97239.06
2023-03-15T18:14:43.877Z,97231.63
2023-03-15T18:17:12.156Z,97239.69
2023-03-15T18:19:40.669Z,97236.91
2023-03-15T18:22:15.418Z,97240.41
2023-03-15T18:24:45.458Z,97240.22
2023-03-15T18:27:15.955Z,97244.09
2023-03-15T18:29:44.132Z,97243.25
2023-03-15T18:32:12.530Z,97242.44
2023-03-15T18:34:41.460Z,97253.28
2023-03-15T18:37:11.792Z,97252.88
2023-03-15T18:39:40.081Z,97253.22
2023-03-15T18:42:08.592Z,97262.50
2023-03-15T18:44:37.933Z,97262.22
2023-03-15T18:47:08.452Z,97271.31
2023-03-15T18:49:37.438Z,97270.72
2023-03-15T18:52:06.552Z,97273.00
2023-03-15T18:54:38.329Z,97275.53
2023-03-15T18:57:07.155Z,97269.00
2023-03-15T18:59:35.448Z,97273.28
2023-03-15T19:02:05.013Z,97273.53
2023-03-15T19:04:33.412Z,97274.66
2023-03-15T19:07:02.493Z,97279.94
2023-03-15T19:09:30.591Z,97276.75
2023-03-15T19:12:00.206Z,97281.25
2023-03-15T19:14:28.538Z,97282.38
2023-03-15T19:16:58.146Z,97284.81
2023-03-15T19:19:26.608Z,97293.34
2023-03-15T19:21:56.628Z,97297.31
2023-03-15T19:24:24.705Z,97299.72
2023-03-15T19:26:53.005Z,97295.53
2023-03-15T19:29:22.869Z,97297.25
2023-03-15T19:31:51.074Z,97297.22
2023-03-15T19:34:19.410Z,97306.72
2023-03-15T19:36:48.466Z,97298.25
2023-03-15T19:39:16.447Z,97299.16
2023-03-15T19:41:45.238Z,97302.28
2023-03-15T19:44:13.565Z,97310.41
2023-03-15T19:46:45.743Z,97303.72
2023-03-15T19:49:14.358Z,97306.56
2023-03-15T19:51:42.764Z,97305.78
2023-03-15T19:54:11.662Z,97315.22
2023-03-15T19:56:41.640Z,97314.41
2023-03-15T19:59:11.133Z,97316.38
2023-03-15T20:01:40.132Z,97323.50
2023-03-15T20:04:10.340Z,97331.88
2023-03-15T20:06:39.115Z,97329.84
2023-03-15T20:09:07.144Z,97333.19
2023-03-15T20:11:35.702Z,97332.34
2023-03-15T20:14:04.798Z,97339.44
2023-03-15T20:16:33.388Z,97340.28
2023-03-15T20:19:02.969Z,97350.31
2023-03-15T20:21:33.869Z,97348.59
2023-03-15T20:24:02.616Z,97349.22
2023-03-15T20:26:31.877Z,97357.00
2023-03-15T20:29:01.411Z,97352.72
2023-03-15T20:31:30.397Z,97359.56
2023-03-15T20:33:58.583Z,97366.25
2023-03-15T20:36:27.180Z,97368.13
2023-03-15T20:38:57.657Z,97368.56
2023-03-15T20:41:26.904Z,97367.19
2023-03-15T20:43:55.425Z,97375.50
2023-03-15T20:46:24.027Z,97373.31
2023-03-15T20:48:53.227Z,97377.53
2023-03-15T20:51:22.497Z,97388.00
2023-03-15T20:53:51.109Z,97389.78
2023-03-15T20:56:22.273Z,97398.13
2023-03-15T20:58:51.360Z,97400.66
2023-03-15T21:01:20.195Z,97397.09
2023-03-15T21:03:48.867Z,97393.13
2023-03-15T21:06:16.887Z,97408.41
2023-03-15T21:08:46.070Z,97408.22
2023-03-15T21:11:14.238Z,97406.78
2023-03-15T21:13:44.059Z,97409.53
2023-03-15T21:16:13.262Z,97421.59
2023-03-15T21:18:47.754Z,97419.84
2023-03-15T21:21:16.750Z,97425.75
2023-03-15T21:23:44.880Z,97416.03
2023-03-15T21:26:14.763Z,97420.31
2023-03-15T21:28:45.834Z,97419.63
2023-03-15T21:31:14.628Z,97423.97
2023-03-15T21:33:43.172Z,97420.44
2023-03-15T21:36:11.289Z,97426.81
2023-03-15T21:38:39.523Z,97427.81
2023-03-15T21:41:09.323Z,97430.38
2023-03-15T21:43:38.121Z,97437.97
2023-03-15T21:46:10.130Z,97438.75
2023-03-15T21:48:38.366Z,97444.03
2023-03-15T21:51:07.514Z,97439.22
2023-03-15T21:53:36.827Z,97451.25
2023-03-15T21:56:05.693Z,97446.41
2023-03-15T21:58:34.216Z,97456.09
2023-03-15T22:01:05.218Z,97454.91
2023-03-15T22:03:36.221Z,97457.28
2023-03-15T22:06:05.077Z,97459.63
2023-03-15T22:08:34.259Z,97459.09
2023-03-15T22:11:02.531Z,97457.34
2023-03-15T22:13:31.131Z,97454.09
2023-03-15T22:15:59.787Z,97463.25
2023-03-15T22:18:28.965Z,97455.81
2023-03-15T22:20:58.810Z,97455.00
2023-03-15T22:23:26.961Z,97459.63
2023-03-15T22:25:55.622Z,97454.78
2023-03-15T22:28:25.535Z,97461.59
2023-03-15T22:30:54.624Z,97460.44
2023-03-15T22:33:23.497Z,97461.31
2023-03-15T22:35:56.881Z,97466.91
2023-03-15T22:38:28.996Z,97465.34
2023-03-15T22:41:05.383Z,97464.25
2023-03-15T22:43:33.784Z,97471.13
2023-03-15T22:46:02.727Z,97464.09
2023-03-15T22:48:31.460Z,97471.06
2023-03-15T22:51:01.122Z,97465.41
2023-03-15T22:53:31.556Z,97469.81
2023-03-15T22:56:00.160Z,97468.00
2023-03-15T22:58:28.647Z,97475.47
2023-03-15T23:00:56.828Z,97477.31
2023-03-15T23:03:26.353Z,97479.41
2023-03-15T23:05:57.501Z,97477.16
2023-03-15T23:08:26.092Z,97485.81
2023-03-15T23:10:57.899Z,97483.91
2023-03-15T23:13:26.165Z,97483.63
2023-03-15T23:15:54.392Z,97480.06
2023-03-15T23:18:23.085Z,97483.72
2023-03-15T23:20:51.432Z,97484.56
2023-03-15T23:23:19.526Z,97487.44
2023-03-15T23:25:47.675Z,97498.41
2023-03-15T23:28:19.378Z,97495.72
2023-03-15T23:30:47.580Z,97500.47
2023-03-15T23:33:15.694Z,97498.28
2023-03-15T23:35:44.401Z,97494.84
2023-03-15T23:38:13.639Z,97496.75
2023-03-15T23:40:41.954Z,97506.78
2023-03-15T23:43:09.920Z,97499.53
2023-03-15T23:45:40.347Z,97507.28
2023-03-15T23:48:08.605Z,97513.16
2023-03-15T23:50:39.184Z,97524.41
2023-03-15T23:53:07.258Z,97523.38
2023-03-15T23:55:35.657Z,97526.88
2023-03-15T23:58:06.784Z,97522.97
